createdAt,value
2023-02-26T00:01:52.354Z,2.76
2023-02-26T00:04:21.696Z,2.51
2023-02-26T00:06:57.552Z,2.15
2023-02-26T00:09:28.733Z,2.63
2023-02-26T00:11:58.727Z,2.49
2023-02-26T00:14:28.374Z,2.56
2023-02-26T00:17:22.645Z,2.92
2023-02-26T00:19:53.339Z,2.71
2023-02-26T00:22:25.461Z,2.76
2023-02-26T00:24:55.646Z,2.64
2023-02-26T00:27:24.778Z,2.52
2023-02-26T00:29:54.527Z,2.54
2023-02-26T00:32:24.088Z,2.64
2023-02-26T00:34:53.713Z,2.54
2023-02-26T00:37:33.186Z,2.71
2023-02-26T00:40:12.973Z,2.51
2023-02-26T00:42:42.597Z,2.72
2023-02-26T00:45:14.068Z,2.85
2023-02-26T00:47:50.000Z,2.70
2023-02-26T00:50:20.956Z,2.27
2023-02-26T00:53:04.716Z,2.20
2023-02-26T00:55:33.855Z,2.02
2023-02-26T00:58:03.720Z,2.19
2023-02-26T01:00:34.123Z,2.08
2023-02-26T01:03:03.737Z,2.06
2023-02-26T01:05:33.476Z,2.29
2023-02-26T01:08:10.319Z,2.13
2023-02-26T01:10:39.704Z,1.90
2023-02-26T01:13:09.381Z,2.33
2023-02-26T01:15:39.268Z,2.25
2023-02-26T01:18:13.763Z,1.90
2023-02-26T01:20:46.603Z,1.66
2023-02-26T01:23:19.490Z,1.74
2023-02-26T01:25:51.074Z,1.76
2023-02-26T01:28:21.289Z,1.91
2023-02-26T01:30:50.967Z,1.66
2023-02-26T01:33:25.235Z,1.91
2023-02-26T01:35:56.064Z,1.85
2023-02-26T01:38:32.205Z,2.17
2023-02-26T01:41:18.703Z,2.10
2023-02-26T01:43:55.168Z,2.27
2023-02-26T01:46:30.240Z,1.85
2023-02-26T01:49:00.507Z,2.06
2023-02-26T01:51:51.427Z,2.13
2023-02-26T01:54:23.652Z,2.00
2023-02-26T01:56:58.882Z,1.96
2023-02-26T01:59:27.977Z,2.06
2023-02-26T02:01:58.566Z,2.05
2023-02-26T02:04:28.158Z,1.77
2023-02-26T02:06:57.542Z,1.74
2023-02-26T02:09:28.194Z,2.17
2023-02-26T02:12:10.139Z,2.24
2023-02-26T02:14:46.825Z,2.05
2023-02-26T02:17:20.211Z,1.93
2023-02-26T02:20:28.243Z,2.14
2023-02-26T02:23:06.618Z,2.22
2023-02-26T02:25:58.453Z,2.37
2023-02-26T02:28:37.074Z,2.15
2023-02-26T02:31:09.873Z,2.17
2023-02-26T02:33:44.919Z,1.82
2023-02-26T02:36:16.847Z,1.97
2023-02-26T02:38:50.392Z,2.03
2023-02-26T02:41:22.203Z,1.69
2023-02-26T02:43:52.221Z,2.10
2023-02-26T02:46:27.263Z,2.14
2023-02-26T02:48:59.233Z,1.98
2023-02-26T02:51:32.701Z,2.14
2023-02-26T02:54:06.824Z,1.77
2023-02-26T02:56:42.632Z,2.22
2023-02-26T02:59:16.306Z,2.19
2023-02-26T03:01:50.785Z,1.94
2023-02-26T03:04:20.451Z,1.82
2023-02-26T03:06:50.271Z,2.06
2023-02-26T03:09:21.190Z,2.04
2023-02-26T03:11:50.401Z,1.83
2023-02-26T03:14:19.968Z,2.04
2023-02-26T03:17:10.382Z,2.37
2023-02-26T03:19:45.821Z,1.85
2023-02-26T03:22:20.039Z,2.15
2023-02-26T03:25:06.482Z,2.11
2023-02-26T03:27:40.600Z,2.03
2023-02-26T03:30:16.154Z,2.00
2023-02-26T03:32:56.006Z,2.24
2023-02-26T03:35:31.076Z,2.32
2023-02-26T03:38:06.083Z,2.35
2023-02-26T03:40:39.346Z,2.04
2023-02-26T03:43:14.540Z,2.02
2023-02-26T03:45:46.984Z,2.02
2023-02-26T03:48:21.178Z,2.25
2023-02-26T03:50:53.332Z,2.05
2023-02-26T03:54:01.721Z,2.23
2023-02-26T03:56:38.064Z,2.31
2023-02-26T03:59:26.169Z,1.90
2023-02-26T04:02:25.328Z,1.67
2023-02-26T04:05:03.471Z,1.76
2023-02-26T04:07:33.086Z,1.83
2023-02-26T04:10:02.403Z,1.84
2023-02-26T04:12:33.789Z,1.77
2023-02-26T04:15:05.391Z,2.09
2023-02-26T04:17:34.546Z,2.11
2023-02-26T04:20:08.125Z,2.06
2023-02-26T04:22:36.939Z,2.40
2023-02-26T04:25:07.039Z,2.47
2023-02-26T04:27:38.455Z,2.42
2023-02-26T04:30:09.572Z,2.24
2023-02-26T04:32:38.685Z,2.21
2023-02-26T04:35:10.804Z,2.20
2023-02-26T04:37:39.586Z,2.18
2023-02-26T04:40:10.129Z,2.16
2023-02-26T04:42:39.839Z,2.14
2023-02-26T04:45:09.534Z,2.22
2023-02-26T04:47:40.822Z,2.33
2023-02-26T04:50:13.209Z,2.11
2023-02-26T04:52:42.065Z,1.72
2023-02-26T04:55:11.802Z,1.64
2023-02-26T04:57:41.100Z,1.52
2023-02-26T05:00:11.691Z,1.42
2023-02-26T05:02:42.015Z,1.55
2023-02-26T05:05:13.042Z,1.84
2023-02-26T05:07:41.917Z,1.77
2023-02-26T05:10:13.090Z,1.59
2023-02-26T05:12:43.172Z,1.46
2023-02-26T05:15:13.118Z,1.34
2023-02-26T05:17:45.148Z,1.47
2023-02-26T05:20:16.740Z,1.54
2023-02-26T05:22:45.490Z,1.57
2023-02-26T05:25:14.749Z,1.15
2023-02-26T05:27:45.603Z,1.19
2023-02-26T05:30:16.819Z,1.51
2023-02-26T05:32:47.997Z,1.43
2023-02-26T05:35:18.612Z,1.60
2023-02-26T05:37:47.076Z,2.00
2023-02-26T05:40:16.286Z,1.90
2023-02-26T05:42:45.581Z,2.00
2023-02-26T05:45:14.717Z,2.15
2023-02-26T05:47:43.829Z,1.54
2023-02-26T05:50:13.897Z,0.83
2023-02-26T05:52:44.218Z,1.18
2023-02-26T05:55:13.337Z,1.22
2023-02-26T05:57:43.216Z,1.26
2023-02-26T06:00:13.885Z,1.13
2023-02-26T06:02:43.530Z,0.72
2023-02-26T06:05:12.735Z,0.94
2023-02-26T06:07:41.655Z,0.52
2023-02-26T06:10:14.334Z,0.96
2023-02-26T06:12:43.591Z,0.62
2023-02-26T06:15:13.209Z,0.36
2023-02-26T06:17:42.719Z,0.25
2023-02-26T06:20:13.867Z,0.13
2023-02-26T06:22:42.633Z,0.17
2023-02-26T06:25:13.500Z,0.10
2023-02-26T06:27:42.992Z,0.53
2023-02-26T06:30:13.569Z,0.68
2023-02-26T06:32:42.389Z,0.82
2023-02-26T06:35:11.860Z,0.64
2023-02-26T06:37:40.648Z,0.18
2023-02-26T06:40:13.279Z,0.35
2023-02-26T06:42:43.574Z,0.45
2023-02-26T06:45:14.384Z,0.60
2023-02-26T06:47:43.524Z,0.72
2023-02-26T06:50:13.901Z,1.02
2023-02-26T06:52:43.571Z,0.70
2023-02-26T06:55:14.485Z,1.06
2023-02-26T06:57:43.630Z,1.15
2023-02-26T07:00:14.373Z,0.68
2023-02-26T07:02:44.444Z,1.04
2023-02-26T07:05:13.619Z,1.20
2023-02-26T07:07:42.624Z,1.15
2023-02-26T07:10:14.700Z,1.28
2023-02-26T07:12:44.204Z,1.37
2023-02-26T07:15:15.631Z,1.67
2023-02-26T07:17:44.812Z,1.77
2023-02-26T07:20:14.683Z,1.94
2023-02-26T07:22:43.614Z,1.80
2023-02-26T07:25:15.065Z,2.06
2023-02-26T07:27:44.253Z,2.14
2023-02-26T07:30:15.468Z,1.68
2023-02-26T07:32:44.916Z,1.86
2023-02-26T07:35:14.076Z,1.59
2023-02-26T07:37:44.865Z,2.13
2023-02-26T07:40:15.943Z,2.44
2023-02-26T07:42:45.151Z,2.19
2023-02-26T07:45:14.308Z,2.72
2023-02-26T07:47:43.501Z,2.56
2023-02-26T07:50:13.670Z,2.91
2023-02-26T07:52:42.596Z,2.68
2023-02-26T07:55:12.359Z,2.87
2023-02-26T07:57:45.196Z,2.92
2023-02-26T08:00:15.827Z,2.53
2023-02-26T08:02:45.018Z,2.66
2023-02-26T08:05:14.969Z,2.53
2023-02-26T08:07:43.869Z,2.46
2023-02-26T08:10:13.577Z,2.63
2023-02-26T08:12:44.163Z,2.85
2023-02-26T08:15:14.541Z,2.62
2023-02-26T08:17:43.736Z,2.07
2023-02-26T08:20:15.384Z,2.50
2023-02-26T08:22:44.119Z,2.47
2023-02-26T08:25:13.976Z,2.46
2023-02-26T08:27:44.625Z,2.67
2023-02-26T08:30:14.751Z,2.39
2023-02-26T08:32:43.996Z,2.33
2023-02-26T08:35:13.799Z,2.26
2023-02-26T08:37:42.964Z,1.95
2023-02-26T08:40:15.165Z,2.60
2023-02-26T08:42:46.041Z,1.95
2023-02-26T08:45:15.800Z,1.66
2023-02-26T08:47:56.384Z,1.95
2023-02-26T08:50:26.499Z,2.17
2023-02-26T08:52:55.504Z,2.22
2023-02-26T08:55:25.090Z,2.28
2023-02-26T08:57:55.746Z,1.40
2023-02-26T09:00:25.227Z,1.74
2023-02-26T09:02:54.469Z,2.03
2023-02-26T09:05:23.821Z,1.97
2023-02-26T09:07:52.714Z,2.49
2023-02-26T09:10:22.218Z,2.54
2023-02-26T09:12:51.422Z,2.10
2023-02-26T09:15:22.202Z,1.82
2023-02-26T09:17:52.012Z,2.25
2023-02-26T09:20:21.541Z,2.03
2023-02-26T09:22:50.321Z,2.24
2023-02-26T09:25:19.712Z,2.02
2023-02-26T09:27:48.847Z,2.50
2023-02-26T09:30:18.527Z,2.46
2023-02-26T09:32:49.145Z,2.55
2023-02-26T09:35:18.810Z,2.49
2023-02-26T09:37:47.591Z,2.53
2023-02-26T09:40:25.827Z,2.43
2023-02-26T09:43:05.177Z,2.10
2023-02-26T09:45:38.176Z,1.67
2023-02-26T09:48:10.448Z,1.86
2023-02-26T09:50:43.893Z,1.82
2023-02-26T09:53:18.172Z,2.24
2023-02-26T09:55:48.059Z,2.12
2023-02-26T09:58:21.082Z,2.15
2023-02-26T10:00:55.876Z,2.44
2023-02-26T10:03:30.062Z,2.84
2023-02-26T10:06:23.932Z,2.61
2023-02-26T10:09:11.998Z,2.51
2023-02-26T10:11:54.897Z,2.72
2023-02-26T10:14:27.821Z,2.50
2023-02-26T10:17:00.958Z,2.73
2023-02-26T10:19:34.651Z,2.57
2023-02-26T10:22:07.659Z,2.61
2023-02-26T10:24:42.293Z,2.90
2023-02-26T10:27:16.296Z,3.13
2023-02-26T10:29:50.051Z,3.00
2023-02-26T10:32:26.905Z,3.08
2023-02-26T10:35:01.737Z,2.92
2023-02-26T10:37:40.636Z,2.88
2023-02-26T10:40:15.351Z,3.00
2023-02-26T10:42:47.691Z,2.74
2023-02-26T10:45:30.501Z,2.89
2023-02-26T10:48:10.348Z,3.06
2023-02-26T10:50:44.747Z,2.62
2023-02-26T10:53:14.214Z,1.95
2023-02-26T10:55:46.059Z,2.23
2023-02-26T10:58:16.775Z,1.80
2023-02-26T11:00:47.845Z,2.07
2023-02-26T11:03:19.922Z,2.16
2023-02-26T11:05:50.456Z,2.79
2023-02-26T11:08:22.727Z,3.02
2023-02-26T11:10:54.163Z,3.26
2023-02-26T11:13:24.208Z,3.27
2023-02-26T11:15:55.586Z,3.59
2023-02-26T11:18:27.850Z,3.43
2023-02-26T11:21:00.482Z,3.48
2023-02-26T11:23:34.105Z,3.68
2023-02-26T11:26:07.470Z,3.31
2023-02-26T11:28:38.182Z,3.79
2023-02-26T11:31:08.206Z,3.68
2023-02-26T11:33:39.240Z,3.63
2023-02-26T11:36:13.234Z,3.55
2023-02-26T11:38:42.957Z,3.70
2023-02-26T11:41:12.838Z,3.87
2023-02-26T11:43:45.028Z,3.42
2023-02-26T11:46:14.984Z,3.61
2023-02-26T11:48:47.881Z,3.66
2023-02-26T11:51:28.003Z,3.91
2023-02-26T11:54:01.421Z,3.84
2023-02-26T11:56:34.313Z,3.82
2023-02-26T11:59:08.782Z,3.79
2023-02-26T12:01:38.262Z,3.50
2023-02-26T12:04:07.576Z,3.51
2023-02-26T12:06:38.127Z,3.42
2023-02-26T12:09:12.890Z,3.50
2023-02-26T12:12:00.502Z,3.63
2023-02-26T12:15:02.226Z,3.27
2023-02-26T12:17:43.628Z,3.27
2023-02-26T12:20:20.113Z,3.20
2023-02-26T12:23:08.208Z,3.66
2023-02-26T12:25:56.378Z,4.08
2023-02-26T12:28:52.390Z,4.20
2023-02-26T12:31:47.320Z,4.05
2023-02-26T12:34:27.691Z,3.64
2023-02-26T12:37:04.816Z,3.39
2023-02-26T12:39:48.412Z,3.24
2023-02-26T12:42:27.197Z,3.21
2023-02-26T12:45:14.736Z,3.15
2023-02-26T12:47:57.422Z,3.32
2023-02-26T12:50:33.198Z,3.52
2023-02-26T12:53:28.078Z,3.88
2023-02-26T12:56:17.708Z,4.12
2023-02-26T12:58:58.913Z,4.14
2023-02-26T13:01:37.523Z,3.55
2023-02-26T13:04:23.593Z,4.02
2023-02-26T13:07:19.979Z,4.65
2023-02-26T13:09:57.740Z,5.31
2023-02-26T13:12:40.755Z,5.08
2023-02-26T13:15:26.858Z,5.43
2023-02-26T13:18:01.318Z,5.59
2023-02-26T13:20:30.887Z,5.34
2023-02-26T13:23:02.383Z,5.35
2023-02-26T13:25:37.011Z,5.07
2023-02-26T13:28:13.276Z,5.18
2023-02-26T13:30:46.643Z,4.54
2023-02-26T13:33:19.860Z,4.07
2023-02-26T13:35:50.262Z,4.38
2023-02-26T13:38:35.051Z,4.44
2023-02-26T13:41:11.667Z,4.95
2023-02-26T13:43:53.259Z,4.74
2023-02-26T13:46:41.246Z,4.59
2023-02-26T13:49:15.646Z,5.02
2023-02-26T13:51:46.585Z,4.33
2023-02-26T13:54:35.362Z,4.76
2023-02-26T13:57:10.514Z,4.94
2023-02-26T13:59:55.755Z,5.38
2023-02-26T14:02:46.144Z,5.49
2023-02-26T14:05:52.852Z,6.01
2023-02-26T14:08:40.941Z,5.17
2023-02-26T14:11:39.756Z,5.22
2023-02-26T14:14:18.048Z,5.62
2023-02-26T14:16:51.958Z,5.98
2023-02-26T14:19:28.560Z,5.75
2023-02-26T14:22:00.972Z,5.25
2023-02-26T14:24:37.683Z,5.44
2023-02-26T14:27:34.621Z,4.71
2023-02-26T14:30:18.866Z,4.87
2023-02-26T14:32:51.016Z,4.86
2023-02-26T14:35:23.031Z,4.82
2023-02-26T14:37:59.724Z,4.99
2023-02-26T14:40:31.547Z,5.01
2023-02-26T14:43:02.514Z,4.68
2023-02-26T14:45:35.138Z,4.58
2023-02-26T14:48:07.704Z,4.05
2023-02-26T14:50:44.993Z,3.79
2023-02-26T14:53:48.969Z,3.70
2023-02-26T14:56:22.503Z,3.67
2023-02-26T14:59:04.806Z,3.43
2023-02-26T15:01:56.458Z,3.77
2023-02-26T15:04:54.125Z,3.84
2023-02-26T15:07:35.991Z,3.79
2023-02-26T15:10:16.141Z,3.94
2023-02-26T15:12:56.722Z,4.10
2023-02-26T15:15:38.494Z,4.24
2023-02-26T15:18:18.792Z,4.18
2023-02-26T15:20:51.544Z,4.24
2023-02-26T15:23:30.571Z,4.14
2023-02-26T15:25:59.404Z,4.13
2023-02-26T15:28:29.935Z,4.11
2023-02-26T15:31:00.447Z,4.19
2023-02-26T15:33:31.249Z,4.13
2023-02-26T15:36:02.909Z,4.02
2023-02-26T15:38:42.184Z,4.06
2023-02-26T15:41:12.014Z,3.69
2023-02-26T15:43:44.319Z,3.87
2023-02-26T15:46:13.411Z,3.77
2023-02-26T15:48:43.167Z,3.50
2023-02-26T15:51:15.758Z,3.72
2023-02-26T15:53:47.155Z,3.58
2023-02-26T15:56:19.989Z,3.34
2023-02-26T15:58:52.984Z,3.25
2023-02-26T16:01:24.644Z,3.02
2023-02-26T16:03:57.919Z,3.18
2023-02-26T16:06:30.610Z,3.29
2023-02-26T16:09:04.319Z,3.09
2023-02-26T16:11:35.889Z,3.06
2023-02-26T16:14:06.411Z,2.92
2023-02-26T16:16:41.383Z,2.80
2023-02-26T16:19:12.175Z,2.62
2023-02-26T16:21:43.520Z,2.45
2023-02-26T16:24:17.479Z,2.73
2023-02-26T16:26:49.229Z,2.39
2023-02-26T16:29:20.124Z,2.59
2023-02-26T16:31:53.273Z,2.51
2023-02-26T16:34:31.589Z,2.57
2023-02-26T16:37:12.743Z,2.38
2023-02-26T16:39:46.495Z,2.48
2023-02-26T16:42:21.136Z,2.39
2023-02-26T16:44:53.547Z,2.50
2023-02-26T16:47:23.740Z,2.41
2023-02-26T16:49:53.576Z,2.31
2023-02-26T16:52:26.319Z,2.41
2023-02-26T16:54:59.237Z,2.41
2023-02-26T16:57:35.980Z,2.36
2023-02-26T17:00:10.296Z,2.40
2023-02-26T17:02:40.756Z,2.25
2023-02-26T17:05:18.915Z,2.33
2023-02-26T17:07:58.325Z,2.42
2023-02-26T17:10:31.261Z,2.51
2023-02-26T17:13:06.289Z,2.42
2023-02-26T17:15:39.059Z,2.42
2023-02-26T17:18:08.632Z,2.24
2023-02-26T17:20:38.590Z,2.36
2023-02-26T17:23:10.355Z,2.20
2023-02-26T17:25:41.400Z,2.24
2023-02-26T17:28:13.228Z,2.04
2023-02-26T17:30:42.308Z,2.24
2023-02-26T17:33:14.466Z,2.44
2023-02-26T17:35:44.379Z,2.43
2023-02-26T17:38:16.104Z,2.37
2023-02-26T17:40:47.749Z,2.45
2023-02-26T17:43:16.963Z,2.30
2023-02-26T17:45:46.198Z,2.45
2023-02-26T17:48:16.504Z,2.53
2023-02-26T17:50:47.138Z,2.70
2023-02-26T17:53:19.031Z,2.37
2023-02-26T17:55:48.613Z,2.60
2023-02-26T17:58:18.604Z,2.63
2023-02-26T18:00:49.989Z,2.20
2023-02-26T18:03:20.088Z,2.54
2023-02-26T18:05:49.957Z,2.55
2023-02-26T18:08:24.146Z,2.50
2023-02-26T18:10:53.552Z,2.39
2023-02-26T18:13:22.640Z,2.48
2023-02-26T18:15:53.098Z,2.39
2023-02-26T18:18:23.462Z,2.42
2023-02-26T18:20:52.915Z,2.40
2023-02-26T18:23:23.850Z,2.44
2023-02-26T18:25:53.815Z,2.45
2023-02-26T18:28:24.318Z,2.30
2023-02-26T18:30:53.776Z,2.20
2023-02-26T18:33:22.991Z,2.12
2023-02-26T18:35:56.020Z,2.02
2023-02-26T18:38:27.826Z,2.17
2023-02-26T18:40:56.834Z,2.08
2023-02-26T18:43:26.310Z,2.05
2023-02-26T18:45:56.804Z,1.88
2023-02-26T18:48:25.907Z,2.04
2023-02-26T18:50:56.117Z,1.92
2023-02-26T18:53:27.690Z,2.08
2023-02-26T18:55:58.233Z,1.97
2023-02-26T18:58:27.464Z,1.75
2023-02-26T19:00:59.325Z,1.90
2023-02-26T19:03:28.483Z,1.94
2023-02-26T19:05:58.899Z,1.85
2023-02-26T19:08:30.364Z,2.02
2023-02-26T19:10:59.328Z,1.89
2023-02-26T19:13:30.176Z,1.94
2023-02-26T19:15:59.353Z,1.97
2023-02-26T19:18:28.528Z,1.99
2023-02-26T19:20:57.631Z,2.00
2023-02-26T19:23:26.668Z,1.83
2023-02-26T19:25:56.822Z,1.93
2023-02-26T19:28:26.082Z,1.94
2023-02-26T19:30:55.916Z,1.86
2023-02-26T19:33:25.133Z,1.83
2023-02-26T19:35:54.348Z,2.31
2023-02-26T19:38:23.644Z,2.02
2023-02-26T19:40:53.045Z,1.95
2023-02-26T19:43:23.991Z,1.95
2023-02-26T19:45:53.869Z,1.88
2023-02-26T19:48:23.937Z,1.71
2023-02-26T19:50:53.036Z,1.86
2023-02-26T19:53:22.154Z,1.66
2023-02-26T19:55:51.174Z,1.98
2023-02-26T19:58:21.150Z,1.97
2023-02-26T20:00:51.663Z,2.23
2023-02-26T20:03:20.805Z,2.29
2023-02-26T20:05:49.887Z,2.37
2023-02-26T20:08:18.982Z,2.15
2023-02-26T20:10:48.503Z,2.33
2023-02-26T20:13:18.520Z,2.16
2023-02-26T20:15:50.924Z,1.92
2023-02-26T20:18:23.050Z,1.77
2023-02-26T20:20:53.339Z,2.04
2023-02-26T20:23:22.163Z,2.28
2023-02-26T20:25:51.209Z,2.32
2023-02-26T20:28:20.338Z,2.14
2023-02-26T20:30:49.460Z,2.12
2023-02-26T20:33:18.782Z,2.17
2023-02-26T20:35:49.850Z,2.18
2023-02-26T20:38:20.307Z,2.30
2023-02-26T20:40:49.864Z,2.34
2023-02-26T20:43:18.948Z,2.28
2023-02-26T20:45:48.124Z,2.17
2023-02-26T20:48:17.259Z,2.52
2023-02-26T20:50:46.398Z,2.67
2023-02-26T20:53:17.140Z,2.46
2023-02-26T20:55:46.023Z,2.33
2023-02-26T20:58:15.078Z,2.53
2023-02-26T21:00:44.441Z,2.59
2023-02-26T21:03:13.563Z,2.45
2023-02-26T21:05:43.174Z,2.54
2023-02-26T21:08:13.555Z,2.42
2023-02-26T21:10:43.924Z,2.22
2023-02-26T21:13:13.074Z,2.08
2023-02-26T21:15:42.248Z,2.16
2023-02-26T21:18:12.964Z,2.14
2023-02-26T21:20:42.144Z,2.11
2023-02-26T21:23:11.419Z,2.11
2023-02-26T21:25:40.341Z,2.27
2023-02-26T21:28:11.000Z,2.19
2023-02-26T21:30:40.231Z,2.18
2023-02-26T21:33:09.465Z,2.44
2023-02-26T21:35:38.709Z,2.29
2023-02-26T21:38:08.714Z,2.47
2023-02-26T21:40:37.679Z,2.30
2023-02-26T21:43:06.883Z,2.34
2023-02-26T21:45:37.455Z,2.37
2023-02-26T21:48:07.215Z,2.49
2023-02-26T21:50:36.522Z,2.37
2023-02-26T21:53:05.607Z,2.40
2023-02-26T21:55:34.232Z,2.56
2023-02-26T21:58:03.606Z,2.54
2023-02-26T22:00:32.809Z,2.33
2023-02-26T22:03:03.462Z,2.11
2023-02-26T22:05:32.517Z,2.07
2023-02-26T22:08:01.894Z,2.12
2023-02-26T22:10:30.588Z,1.87
2023-02-26T22:12:59.674Z,2.22
2023-02-26T22:15:29.773Z,1.92
2023-02-26T22:17:58.802Z,1.89
2023-02-26T22:20:30.378Z,2.05
2023-02-26T22:22:59.861Z,1.91
2023-02-26T22:25:28.914Z,2.13
2023-02-26T22:27:58.002Z,1.91
2023-02-26T22:30:27.056Z,1.51
2023-02-26T22:32:56.113Z,1.80
2023-02-26T22:35:25.160Z,1.83
2023-02-26T22:37:55.419Z,1.88
2023-02-26T22:40:25.008Z,1.97
2023-02-26T22:43:34.309Z,1.70
2023-02-26T22:46:43.923Z,2.06
2023-02-26T22:49:53.243Z,2.21
2023-02-26T22:53:04.442Z,2.14
2023-02-26T22:56:13.735Z,2.00
2023-02-26T22:59:23.116Z,1.87
2023-02-26T23:02:32.505Z,1.97
2023-02-26T23:05:41.839Z,2.34
2023-02-26T23:08:52.933Z,2.53
2023-02-26T23:12:02.273Z,2.42
2023-02-26T23:15:12.638Z,2.56
2023-02-26T23:18:22.125Z,2.71
2023-02-26T23:21:32.083Z,2.46
2023-02-26T23:24:43.007Z,2.39
2023-02-26T23:27:52.275Z,2.38
2023-02-26T23:31:01.586Z,2.43
2023-02-26T23:34:11.315Z,2.30
2023-02-26T23:37:20.710Z,2.30
2023-02-26T23:40:31.815Z,2.40
2023-02-26T23:43:41.132Z,2.14
2023-02-26T23:46:50.846Z,2.14
2023-02-26T23:50:00.331Z,2.07
2023-02-26T23:53:09.989Z,1.87
2023-02-26T23:56:20.750Z,2.14
2023-02-26T23:59:30.034Z,1.65
